Time;durP1;ratioP1;P1;durP2;ratioP2;P2;SDS_P1;SDS_P2;PMS_P1;PMS_P2;Temp;Humidity;BMP_temperature;BMP_pressure;BME280_temperature;BME280_humidity;BME280_pressure;Samples;Min_cycle;Max_cycle;Signal;HPM_P1;HPM_P2
2021/03/17 00:02:35;;;;;;;19.45;10.48;;;5.50;99.90;;;;;;10338513;28;20049;-64
2021/03/17 00:07:37;;;;;;;20.52;11.75;;;5.50;99.90;;;;;;10358259;28;20133;-64
2021/03/17 00:12:38;;;;;;;16.50;9.00;;;5.40;99.90;;;;;;10367318;28;20049;-64
2021/03/17 00:17:39;;;;;;;21.00;10.80;;;5.40;99.90;;;;;;10353051;28;20053;-64
2021/03/17 00:22:41;;;;;;;17.98;10.10;;;5.40;99.90;;;;;;10332678;28;20653;-64
2021/03/17 00:27:43;;;;;;;20.35;11.30;;;5.40;99.90;;;;;;10332965;28;20050;-64
2021/03/17 00:32:44;;;;;;;18.40;8.57;;;5.30;99.90;;;;;;10352070;28;20051;-64
2021/03/17 00:37:46;;;;;;;22.30;10.43;;;5.30;99.90;;;;;;10354032;28;20069;-64
2021/03/17 00:42:47;;;;;;;21.05;10.73;;;5.20;99.90;;;;;;10350502;28;20041;-64
2021/03/17 00:47:49;;;;;;;23.95;11.02;;;5.20;99.90;;;;;;10355826;28;20049;-65
2021/03/17 00:52:50;;;;;;;25.75;13.05;;;5.20;99.90;;;;;;10345300;28;20304;-64
2021/03/17 00:57:51;;;;;;;26.67;12.23;;;5.10;99.90;;;;;;10346794;28;20420;-62
2021/03/17 01:02:53;;;;;;;25.85;12.25;;;5.00;99.90;;;;;;10341912;28;20046;-63
2021/03/17 01:07:54;;;;;;;23.48;11.63;;;4.90;99.90;;;;;;10339263;28;20080;-63
2021/03/17 01:12:55;;;;;;;27.85;13.13;;;4.90;99.90;;;;;;10339522;28;20139;-63
2021/03/17 01:17:56;;;;;;;27.20;12.52;;;4.90;99.90;;;;;;10353989;28;20054;-63
2021/03/17 01:22:58;;;;;;;27.00;12.57;;;4.90;99.90;;;;;;10340024;28;20055;-63
2021/03/17 01:28:03;;;;;;;22.45;11.00;;;4.90;99.90;;;;;;10344503;28;20053;-63
2021/03/17 01:33:05;;;;;;;23.83;11.80;;;4.90;99.90;;;;;;10338170;28;20128;-63
2021/03/17 01:38:07;;;;;;;25.60;11.77;;;4.90;99.90;;;;;;10339587;28;20530;-63
2021/03/17 01:43:09;;;;;;;23.55;11.00;;;4.90;99.90;;;;;;10346455;28;20107;-63
2021/03/17 01:48:11;;;;;;;28.90;12.45;;;5.00;99.90;;;;;;10351922;28;20463;-63
2021/03/17 01:53:16;;;;;;;28.15;12.05;;;5.00;99.90;;;;;;10345777;28;20503;-64
2021/03/17 01:58:19;;;;;;;29.80;12.60;;;5.00;99.90;;;;;;10354046;28;20073;-63
2021/03/17 02:03:21;;;;;;;24.35;11.45;;;5.00;99.90;;;;;;10331887;28;20526;-63
2021/03/17 02:08:33;;;;;;;24.52;11.52;;;4.90;99.90;;;;;;10355076;28;20184;-63
2021/03/17 02:13:42;;;;;;;24.58;11.93;;;4.90;99.90;;;;;;10339468;28;20053;-63
2021/03/17 02:19:05;;;;;;;26.75;11.65;;;4.90;99.90;;;;;;10359830;28;20048;-63
2021/03/17 02:24:27;;;;;;;19.67;10.10;;;4.80;99.90;;;;;;10336781;28;20054;-63
2021/03/17 02:29:48;;;;;;;20.70;10.68;;;4.70;99.90;;;;;;10286700;28;20490;-63
2021/03/17 02:34:52;;;;;;;22.40;11.13;;;4.60;99.90;;;;;;10338676;28;20050;-64
2021/03/17 02:40:13;;;;;;;27.00;12.57;;;4.60;99.90;;;;;;10344360;28;20595;-63
2021/03/17 02:45:25;;;;;;;20.40;10.40;;;4.60;99.90;;;;;;10340610;28;20045;-63
2021/03/17 02:50:27;;;;;;;25.58;11.18;;;4.50;99.90;;;;;;10349200;28;20058;-63
2021/03/17 02:55:33;;;;;;;27.23;12.20;;;4.50;99.90;;;;;;10341838;28;20069;-63
2021/03/17 03:00:35;;;;;;;24.97;14.27;;;4.40;99.90;;;;;;10346209;28;20034;-63
2021/03/17 03:05:38;;;;;;;28.30;15.23;;;4.40;99.90;;;;;;10059630;28;20276;-64
2021/03/17 03:10:40;;;;;;;23.60;13.65;;;4.40;99.90;;;;;;10069059;28;20130;-64
2021/03/17 03:15:43;;;;;;;29.25;14.80;;;4.30;99.90;;;;;;10058356;28;20054;-62
2021/03/17 03:20:45;;;;;;;27.52;14.00;;;4.20;99.90;;;;;;10072346;28;20046;-63
2021/03/17 03:25:47;;;;;;;29.00;15.13;;;4.10;99.90;;;;;;10083078;28;20042;-63
2021/03/17 03:30:51;;;;;;;24.50;13.93;;;4.10;99.90;;;;;;10065783;28;20091;-63
2021/03/17 03:35:53;;;;;;;29.98;15.07;;;4.00;99.90;;;;;;10065407;28;20038;-63
2021/03/17 03:40:55;;;;;;;25.92;14.25;;;4.00;99.90;;;;;;10070224;28;20068;-63
2021/03/17 03:45:56;;;;;;;28.17;14.52;;;4.00;99.90;;;;;;10057023;28;20045;-62
2021/03/17 03:50:58;;;;;;;28.98;13.95;;;3.90;99.90;;;;;;10061165;28;20425;-62
2021/03/17 03:56:26;;;;;;;23.48;13.32;;;3.90;99.90;;;;;;10061679;28;20105;-63
2021/03/17 04:01:47;;;;;;;25.47;14.17;;;3.90;99.90;;;;;;9973897;28;20096;-63
2021/03/17 04:06:51;;;;;;;29.42;14.27;;;3.80;99.90;;;;;;10075605;28;20054;-63
2021/03/17 04:12:03;;;;;;;28.17;11.52;;;3.80;99.90;;;;;;10156584;28;20049;-63
2021/03/17 04:17:10;;;;;;;27.65;11.98;;;3.70;99.90;;;;;;10344770;28;20046;-63
2021/03/17 04:22:12;;;;;;;62.22;25.27;;;3.70;99.90;;;;;;10350525;28;20055;-63
2021/03/17 04:27:14;;;;;;;34.33;15.38;;;3.70;99.90;;;;;;10335104;28;20053;-63
2021/03/17 04:32:17;;;;;;;29.48;13.38;;;3.70;99.90;;;;;;10345138;28;20520;-64
2021/03/17 04:37:19;;;;;;;28.52;12.88;;;3.60;99.90;;;;;;10348379;28;20061;-63
2021/03/17 04:42:20;;;;;;;28.88;11.98;;;3.70;99.90;;;;;;10342419;28;20117;-64
2021/03/17 04:47:23;;;;;;;26.88;11.70;;;3.60;99.90;;;;;;10342338;28;20385;-64
2021/03/17 04:52:26;;;;;;;27.52;11.63;;;3.60;99.90;;;;;;10345206;28;20068;-64
2021/03/17 04:57:29;;;;;;;29.23;11.93;;;3.60;99.90;;;;;;10353060;28;20443;-63
2021/03/17 05:02:31;;;;;;;28.10;11.90;;;3.40;99.90;;;;;;10332455;28;20503;-64
2021/03/17 05:07:32;;;;;;;31.67;12.10;;;3.30;99.90;;;;;;10338888;28;20490;-64
2021/03/17 05:12:36;;;;;;;25.63;11.15;;;3.10;99.90;;;;;;10344124;28;23818;-64
2021/03/17 05:17:38;;;;;;;31.98;13.20;;;3.00;99.90;;;;;;10352761;28;20103;-64
2021/03/17 05:22:42;;;;;;;29.30;12.43;;;3.00;99.90;;;;;;10344931;28;20049;-64
2021/03/17 05:27:49;;;;;;;24.90;12.05;;;3.00;99.90;;;;;;10348208;28;20053;-64
2021/03/17 05:32:52;;;;;;;34.53;13.07;;;3.00;99.90;;;;;;10349850;28;20052;-64
2021/03/17 05:37:54;;;;;;;27.67;11.88;;;2.90;99.90;;;;;;10345254;28;20050;-64
2021/03/17 05:42:59;;;;;;;31.88;13.35;;;2.90;99.90;;;;;;10337041;28;20042;-63
2021/03/17 05:48:02;;;;;;;26.00;9.82;;;3.00;99.90;;;;;;10343148;28;20053;-63
2021/03/17 05:53:09;;;;;;;30.15;12.57;;;3.10;99.90;;;;;;10338389;28;20552;-64
2021/03/17 05:58:12;;;;;;;24.58;10.18;;;3.30;99.90;;;;;;10339713;28;20161;-64
2021/03/17 06:03:14;;;;;;;23.45;10.07;;;3.40;99.90;;;;;;10352470;28;20069;-64
2021/03/17 06:08:23;;;;;;;26.45;10.85;;;3.50;99.90;;;;;;10337878;28;20042;-64
2021/03/17 06:13:27;;;;;;;26.88;11.57;;;3.60;99.90;;;;;;10347383;28;20045;-64
2021/03/17 06:18:33;;;;;;;24.02;9.80;;;3.70;99.90;;;;;;10345895;28;20090;-64
2021/03/17 06:23:35;;;;;;;31.80;11.57;;;3.80;99.90;;;;;;10326014;28;20118;-64
2021/03/17 06:28:41;;;;;;;27.02;11.93;;;3.90;99.90;;;;;;10343702;28;20050;-64
2021/03/17 06:33:42;;;;;;;30.58;12.25;;;3.80;99.90;;;;;;10343664;28;20050;-64
2021/03/17 06:38:45;;;;;;;24.63;11.52;;;4.00;99.90;;;;;;10354197;28;20111;-65
2021/03/17 06:43:50;;;;;;;28.65;12.27;;;4.10;99.90;;;;;;10333390;28;20390;-65
2021/03/17 06:48:52;;;;;;;23.15;9.70;;;4.20;99.90;;;;;;10374542;28;20079;-65
2021/03/17 06:53:56;;;;;;;22.70;9.60;;;4.30;99.90;;;;;;10351840;28;21267;-65
2021/03/17 06:59:01;;;;;;;19.35;8.13;;;4.40;99.90;;;;;;10357946;28;20052;-64
2021/03/17 07:04:05;;;;;;;21.35;7.97;;;4.50;99.90;;;;;;10343469;28;20057;-65
2021/03/17 07:09:17;;;;;;;21.98;9.45;;;4.60;99.90;;;;;;10357793;28;20056;-64
2021/03/17 07:14:26;;;;;;;20.58;9.32;;;4.70;99.90;;;;;;10357872;28;20053;-65
2021/03/17 07:19:36;;;;;;;21.80;10.38;;;4.90;99.90;;;;;;10372549;28;20477;-64
2021/03/17 07:24:40;;;;;;;24.42;10.18;;;5.00;99.90;;;;;;10352943;28;20049;-65
2021/03/17 07:29:42;;;;;;;22.58;10.15;;;4.90;99.90;;;;;;10357852;28;20054;-64
2021/03/17 07:34:44;;;;;;;22.75;10.68;;;4.80;99.90;;;;;;10365894;28;20392;-64
2021/03/17 07:39:47;;;;;;;23.98;10.13;;;4.90;99.90;;;;;;10346450;28;20057;-64
2021/03/17 07:44:49;;;;;;;21.45;10.32;;;5.00;99.90;;;;;;10359352;28;20057;-65
2021/03/17 07:49:50;;;;;;;25.02;10.38;;;5.10;99.90;;;;;;10338383;28;20160;-63
2021/03/17 07:54:55;;;;;;;23.02;10.70;;;5.20;99.90;;;;;;10345333;28;20494;-63
2021/03/17 07:59:57;;;;;;;21.40;10.77;;;5.40;99.90;;;;;;10361112;28;20060;-63
2021/03/17 08:04:59;;;;;;;22.30;10.70;;;5.50;99.90;;;;;;10346923;28;20073;-63
2021/03/17 08:10:02;;;;;;;26.05;10.27;;;5.60;99.90;;;;;;10348981;28;20056;-63
2021/03/17 08:15:05;;;;;;;22.63;9.65;;;5.30;99.90;;;;;;10356539;28;20046;-63
2021/03/17 08:20:35;;;;;;;25.20;9.48;;;5.20;99.90;;;;;;10349366;28;20052;-63
2021/03/17 08:25:46;;;;;;;29.20;11.23;;;5.40;99.90;;;;;;10272763;28;20503;-63
2021/03/17 08:30:50;;;;;;;22.70;9.95;;;5.30;99.90;;;;;;10346615;28;20055;-63
2021/03/17 08:36:11;;;;;;;24.38;11.82;;;5.30;99.90;;;;;;10340295;28;20054;-62
2021/03/17 08:41:37;;;;;;;19.60;10.35;;;5.50;99.90;;;;;;10339801;28;20464;-63
2021/03/17 08:46:38;;;;;;;26.25;9.52;;;5.60;99.90;;;;;;10339776;28;20524;-63
2021/03/17 08:51:46;;;;;;;22.35;10.75;;;5.60;99.90;;;;;;10343747;28;20056;-63
2021/03/17 08:56:50;;;;;;;23.42;10.15;;;5.60;99.90;;;;;;10369609;28;20180;-63
2021/03/17 09:01:52;;;;;;;20.73;10.05;;;5.50;99.90;;;;;;10353216;28;20057;-63
2021/03/17 09:07:07;;;;;;;23.52;9.68;;;5.40;99.90;;;;;;10335168;28;21302;-64
2021/03/17 09:12:08;;;;;;;22.35;10.68;;;5.10;99.90;;;;;;10343043;28;20571;-64
2021/03/17 09:17:25;;;;;;;14.82;7.18;;;5.30;99.90;;;;;;10344482;28;20053;-65
2021/03/17 09:22:35;;;;;;;13.00;5.22;;;4.90;99.90;;;;;;10301317;28;20056;-65
2021/03/17 09:27:47;;;;;;;11.25;5.57;;;4.80;99.90;;;;;;10355026;28;20057;-66
2021/03/17 09:32:49;;;;;;;13.95;7.20;;;4.80;99.90;;;;;;10351966;28;20060;-65
2021/03/17 09:37:59;;;;;;;21.45;9.30;;;4.90;99.90;;;;;;10351569;28;20045;-65
2021/03/17 09:43:01;;;;;;;20.40;8.93;;;5.00;99.90;;;;;;10350618;28;20085;-66
2021/03/17 09:48:03;;;;;;;12.57;6.85;;;5.30;99.90;;;;;;10338153;28;20408;-65
2021/03/17 09:53:11;;;;;;;11.45;5.57;;;5.70;99.90;;;;;;10336859;28;22422;-64
2021/03/17 09:58:12;;;;;;;10.68;4.63;;;6.10;99.90;;;;;;10332755;28;20052;-64
2021/03/17 10:03:14;;;;;;;7.78;3.10;;;6.30;99.90;;;;;;10359400;28;20076;-68
2021/03/17 10:08:15;;;;;;;9.23;1.80;;;6.50;99.90;;;;;;10344589;28;20393;-63
2021/03/17 10:13:17;;;;;;;6.22;1.60;;;6.30;99.90;;;;;;10354716;28;20042;-65
2021/03/17 10:18:18;;;;;;;8.32;2.00;;;6.10;99.90;;;;;;10353878;28;20049;-64
2021/03/17 10:23:19;;;;;;;6.97;1.52;;;5.60;99.90;;;;;;10353981;28;20037;-65
2021/03/17 10:28:21;;;;;;;6.78;1.80;;;5.50;99.90;;;;;;10352267;28;20046;-63
2021/03/17 10:33:22;;;;;;;2.85;0.60;;;5.70;99.90;;;;;;10360332;28;20048;-64
2021/03/17 10:38:26;;;;;;;3.42;0.60;;;5.00;99.90;;;;;;10338739;28;20046;-64
2021/03/17 10:43:31;;;;;;;1.73;0.60;;;5.30;99.90;;;;;;10352379;28;20068;-64
2021/03/17 10:48:32;;;;;;;5.75;1.25;;;5.30;99.90;;;;;;10342061;28;20065;-64
2021/03/17 10:53:36;;;;;;;3.72;0.80;;;5.20;99.90;;;;;;10186550;28;20053;-66
2021/03/17 10:58:39;;;;;;;4.30;0.90;;;5.30;99.90;;;;;;10346701;28;20088;-64
2021/03/17 11:03:41;;;;;;;2.95;0.70;;;4.80;99.90;;;;;;10349761;28;20184;-63
2021/03/17 11:08:46;;;;;;;4.95;0.80;;;5.00;99.90;;;;;;10340671;28;20049;-64
2021/03/17 11:13:49;;;;;;;2.97;0.82;;;5.20;99.90;;;;;;10344134;28;20041;-64
2021/03/17 11:18:51;;;;;;;3.22;1.00;;;5.60;99.90;;;;;;10347817;28;20065;-64
2021/03/17 11:23:55;;;;;;;4.15;0.60;;;5.80;99.90;;;;;;10343829;28;20061;-64
2021/03/17 11:28:58;;;;;;;2.03;0.60;;;5.70;99.90;;;;;;10357872;28;20441;-64
2021/03/17 11:34:01;;;;;;;2.97;0.93;;;5.50;99.90;;;;;;10350800;28;20045;-64
2021/03/17 11:39:08;;;;;;;1.48;0.80;;;5.30;99.90;;;;;;10356188;28;20112;-64
2021/03/17 11:44:13;;;;;;;3.00;1.30;;;5.80;99.90;;;;;;10357823;28;20072;-63
2021/03/17 11:49:16;;;;;;;7.13;1.15;;;5.90;99.90;;;;;;10351265;28;20051;-64
2021/03/17 11:54:18;;;;;;;4.38;0.65;;;5.90;99.90;;;;;;10342718;28;20056;-64
2021/03/17 11:59:19;;;;;;;2.97;0.90;;;6.00;99.90;;;;;;10340167;28;20049;-64
2021/03/17 12:04:20;;;;;;;3.35;0.70;;;6.90;99.50;;;;;;10340733;28;20139;-64
2021/03/17 12:09:23;;;;;;;4.53;0.70;;;7.80;98.90;;;;;;10352024;28;20041;-62
2021/03/17 12:14:24;;;;;;;3.92;1.13;;;8.80;92.10;;;;;;10353082;28;20072;-62
2021/03/17 12:19:25;;;;;;;2.05;0.80;;;8.90;87.00;;;;;;10354405;28;20049;-62
2021/03/17 12:24:27;;;;;;;1.80;0.80;;;8.60;87.00;;;;;;10335806;28;20432;-63
2021/03/17 12:29:29;;;;;;;4.25;1.00;;;7.90;92.30;;;;;;10357572;28;20364;-63
2021/03/17 12:34:30;;;;;;;3.63;0.90;;;8.00;96.40;;;;;;10351668;28;20131;-63
2021/03/17 12:39:31;;;;;;;7.82;0.57;;;7.80;93.20;;;;;;10344585;28;20057;-62
2021/03/17 12:44:33;;;;;;;2.90;0.45;;;7.70;93.10;;;;;;10341200;28;20060;-63
2021/03/17 12:49:36;;;;;;;1.67;0.60;;;7.90;93.20;;;;;;10352532;28;20063;-63
2021/03/17 12:54:37;;;;;;;4.43;1.15;;;8.20;92.20;;;;;;10352559;28;20149;-63
2021/03/17 12:59:38;;;;;;;1.65;0.50;;;8.30;90.00;;;;;;10329736;28;20678;-63
2021/03/17 13:04:41;;;;;;;1.02;0.22;;;8.20;89.00;;;;;;10345993;28;20077;-63
2021/03/17 13:09:42;;;;;;;2.67;0.20;;;7.80;81.60;;;;;;10350316;28;20077;-63
2021/03/17 13:14:44;;;;;;;2.70;0.20;;;7.50;84.00;;;;;;10356797;28;20046;-63
2021/03/17 13:19:46;;;;;;;0.60;0.17;;;7.60;84.50;;;;;;10361482;28;20045;-63
2021/03/17 13:24:48;;;;;;;1.65;0.30;;;7.60;79.60;;;;;;10350478;28;20076;-63
2021/03/17 13:29:58;;;;;;;1.90;0.20;;;7.50;79.60;;;;;;10352776;28;20049;-63
2021/03/17 13:35:00;;;;;;;2.90;0.47;;;7.60;78.00;;;;;;10346658;28;20049;-63
2021/03/17 13:40:07;;;;;;;1.27;0.30;;;8.00;78.60;;;;;;10364817;28;20084;-63
2021/03/17 13:45:09;;;;;;;;;;;8.00;77.90;;;;;;10356849;28;20049;-64
2021/03/17 13:50:13;;;;;;;0.80;0.30;;;8.10;75.40;;;;;;10346699;28;20390;-64
2021/03/17 13:55:14;;;;;;;2.03;0.50;;;8.10;76.10;;;;;;10337245;28;20150;-63
2021/03/17 14:00:17;;;;;;;1.90;0.63;;;8.00;81.30;;;;;;10362273;28;20048;-63
2021/03/17 14:05:18;;;;;;;2.70;0.50;;;7.90;80.70;;;;;;10338599;28;20081;-63
2021/03/17 14:10:26;;;;;;;2.72;0.40;;;8.00;80.10;;;;;;10341390;28;20702;-63
2021/03/17 14:15:27;;;;;;;1.85;0.40;;;7.80;79.70;;;;;;10319413;28;20543;-63
2021/03/17 14:20:31;;;;;;;1.40;0.30;;;7.50;80.90;;;;;;10339501;28;20065;-63
2021/03/17 14:25:34;;;;;;;3.70;0.40;;;7.10;81.50;;;;;;10344111;28;20062;-63
2021/03/17 14:30:36;;;;;;;1.20;0.40;;;6.90;81.30;;;;;;10359926;28;21061;-62
2021/03/17 14:35:38;;;;;;;2.55;0.40;;;6.70;81.70;;;;;;10348251;28;20053;-62
2021/03/17 14:40:40;;;;;;;1.50;0.38;;;6.70;82.20;;;;;;10357770;28;20683;-61
2021/03/17 14:45:41;;;;;;;1.13;0.30;;;6.60;81.40;;;;;;10352848;28;20080;-64
2021/03/17 14:50:43;;;;;;;2.13;0.35;;;6.60;81.50;;;;;;10338199;28;20057;-64
2021/03/17 14:55:44;;;;;;;0.50;0.20;;;6.70;80.90;;;;;;10352788;28;20042;-65
2021/03/17 15:00:45;;;;;;;1.38;0.45;;;6.60;79.10;;;;;;10351976;28;20427;-64
2021/03/17 15:05:49;;;;;;;4.03;0.40;;;6.60;78.20;;;;;;10341351;28;20136;-64
2021/03/17 15:10:53;;;;;;;1.58;0.30;;;6.60;79.60;;;;;;10366470;28;20057;-62
2021/03/17 15:15:54;;;;;;;3.50;0.40;;;6.60;78.70;;;;;;10350819;28;20053;-61
2021/03/17 15:20:56;;;;;;;3.60;1.40;;;6.80;79.10;;;;;;10359784;28;20576;-62
2021/03/17 15:25:57;;;;;;;0.65;0.38;;;7.20;79.20;;;;;;10359616;28;20776;-62
2021/03/17 15:30:59;;;;;;;3.58;0.40;;;7.60;75.50;;;;;;10344685;28;20042;-62
2021/03/17 15:36:04;;;;;;;1.67;0.40;;;7.90;71.40;;;;;;10352271;28;20048;-63
2021/03/17 15:41:06;;;;;;;2.15;0.40;;;7.80;73.00;;;;;;10359671;28;20034;-62
2021/03/17 15:46:07;;;;;;;2.75;0.38;;;7.50;73.00;;;;;;10342562;28;20042;-63
2021/03/17 15:51:09;;;;;;;2.53;0.50;;;7.20;74.00;;;;;;10372485;28;20049;-62
2021/03/17 15:56:12;;;;;;;3.00;0.40;;;7.10;74.10;;;;;;10347956;28;20562;-62
2021/03/17 16:01:14;;;;;;;1.48;0.75;;;6.90;75.40;;;;;;10355377;28;20053;-62
2021/03/17 16:06:16;;;;;;;2.05;0.40;;;6.80;76.80;;;;;;10356524;28;20057;-63
2021/03/17 16:11:17;;;;;;;7.35;0.50;;;6.60;78.60;;;;;;10355163;28;20460;-62
2021/03/17 16:16:24;;;;;;;4.07;0.45;;;6.40;82.90;;;;;;10364489;28;20050;-62
2021/03/17 16:21:26;;;;;;;4.20;0.40;;;6.20;82.20;;;;;;10358456;28;20050;-62
2021/03/17 16:26:29;;;;;;;1.45;0.35;;;5.90;80.70;;;;;;10361585;28;20790;-63
2021/03/17 16:31:30;;;;;;;3.40;0.40;;;5.90;80.20;;;;;;10350215;28;20041;-63
2021/03/17 16:36:31;;;;;;;2.47;0.47;;;5.80;79.50;;;;;;10355532;28;20272;-63
2021/03/17 16:41:32;;;;;;;4.65;0.50;;;5.70;79.00;;;;;;10364455;28;20155;-62
2021/03/17 16:46:34;;;;;;;4.60;0.50;;;5.60;78.90;;;;;;10339904;28;20069;-62
2021/03/17 16:51:35;;;;;;;2.45;0.40;;;5.60;79.30;;;;;;10351389;28;20048;-62
2021/03/17 16:56:37;;;;;;;3.72;0.60;;;5.50;80.20;;;;;;10361577;28;20073;-62
2021/03/17 17:01:38;;;;;;;1.23;0.57;;;5.50;81.10;;;;;;10378920;28;20049;-62
2021/03/17 17:06:40;;;;;;;3.03;0.45;;;5.50;81.90;;;;;;10352868;28;20049;-62
2021/03/17 17:11:42;;;;;;;3.65;0.50;;;5.40;82.70;;;;;;10348620;28;20046;-62
2021/03/17 17:16:43;;;;;;;1.50;0.60;;;5.40;82.90;;;;;;10353973;28;20042;-62
2021/03/17 17:21:44;;;;;;;5.43;0.90;;;5.30;83.20;;;;;;10354197;28;20103;-63
2021/03/17 17:26:46;;;;;;;1.95;0.70;;;5.30;85.00;;;;;;10369282;28;20037;-62
2021/03/17 17:31:47;;;;;;;5.28;0.82;;;5.20;86.20;;;;;;10349444;28;20049;-61
2021/03/17 17:36:48;;;;;;;2.13;0.70;;;5.20;85.80;;;;;;10352414;28;20060;-61
2021/03/17 17:41:50;;;;;;;2.97;0.57;;;5.10;87.10;;;;;;10363146;28;20053;-62
2021/03/17 17:46:51;;;;;;;1.83;0.70;;;5.10;87.40;;;;;;10354187;28;20439;-62
2021/03/17 17:51:52;;;;;;;3.67;0.88;;;5.20;87.60;;;;;;10351856;28;20057;-62
2021/03/17 17:56:53;;;;;;;3.35;0.43;;;5.10;84.10;;;;;;10359134;28;20053;-62
2021/03/17 18:01:55;;;;;;;4.90;1.42;;;5.10;85.00;;;;;;10350024;28;20041;-62
2021/03/17 18:06:56;;;;;;;6.18;0.82;;;5.00;85.90;;;;;;10351951;28;20522;-62
2021/03/17 18:11:57;;;;;;;4.88;0.60;;;4.90;85.10;;;;;;10352979;28;20065;-62
2021/03/17 18:16:59;;;;;;;3.08;0.70;;;4.60;85.10;;;;;;10361814;28;20046;-62
2021/03/17 18:22:00;;;;;;;3.35;0.80;;;4.40;87.40;;;;;;10342465;28;20116;-62
2021/03/17 18:27:01;;;;;;;5.00;0.95;;;4.20;88.10;;;;;;10344629;28;20119;-62
2021/03/17 18:32:03;;;;;;;2.17;0.70;;;4.00;89.20;;;;;;10339238;28;20103;-63
2021/03/17 18:37:04;;;;;;;10.20;1.77;;;3.80;89.30;;;;;;10352668;28;20058;-62
2021/03/17 18:42:06;;;;;;;4.45;1.17;;;3.60;89.10;;;;;;10362768;28;20111;-62
2021/03/17 18:47:07;;;;;;;4.68;1.27;;;3.50;89.20;;;;;;10349250;28;20784;-62
2021/03/17 18:52:08;;;;;;;5.13;1.48;;;3.40;91.00;;;;;;10350026;28;20049;-62
2021/03/17 18:57:09;;;;;;;4.68;1.13;;;3.30;90.00;;;;;;10347906;28;20107;-62
2021/03/17 19:02:11;;;;;;;3.78;0.80;;;3.20;90.20;;;;;;10351814;28;20046;-62
2021/03/17 19:07:12;;;;;;;1.85;0.90;;;3.10;90.50;;;;;;10356057;28;20131;-62
2021/03/17 19:12:13;;;;;;;3.67;0.85;;;2.90;90.60;;;;;;10356393;28;20062;-62
2021/03/17 19:17:15;;;;;;;4.30;1.75;;;2.80;90.50;;;;;;10352711;28;20088;-62
2021/03/17 19:22:17;;;;;;;2.38;0.98;;;2.70;90.60;;;;;;10365473;28;20054;-63
2021/03/17 19:27:18;;;;;;;3.70;0.70;;;2.60;90.40;;;;;;10377450;28;20057;-62
2021/03/17 19:32:19;;;;;;;14.55;2.08;;;2.50;90.60;;;;;;10354562;28;20041;-62
2021/03/17 19:37:20;;;;;;;4.45;0.90;;;2.40;91.10;;;;;;10356090;28;20034;-62
2021/03/17 19:42:22;;;;;;;4.60;0.80;;;2.30;91.00;;;;;;10369742;28;20046;-62
2021/03/17 19:47:31;;;;;;;2.35;1.27;;;2.20;91.80;;;;;;10368720;28;20059;-62
2021/03/17 19:52:32;;;;;;;6.57;1.40;;;2.10;92.30;;;;;;10359392;28;20572;-62
2021/03/17 19:57:34;;;;;;;3.47;1.73;;;2.00;92.90;;;;;;10360589;28;20685;-62
2021/03/17 20:02:36;;;;;;;5.40;1.73;;;1.90;93.00;;;;;;10359105;28;20065;-62
2021/03/17 20:07:38;;;;;;;7.85;2.10;;;1.70;95.00;;;;;;10358865;28;20111;-62
2021/03/17 20:12:41;;;;;;;8.68;2.55;;;1.60;95.40;;;;;;10355964;28;20121;-62
2021/03/17 20:17:42;;;;;;;9.65;3.60;;;1.50;96.20;;;;;;10341009;28;20042;-61
2021/03/17 20:22:45;;;;;;;5.93;2.22;;;1.30;97.20;;;;;;10361314;28;20104;-61
2021/03/17 20:27:51;;;;;;;7.25;2.03;;;1.20;99.70;;;;;;10353985;28;20077;-61
2021/03/17 20:32:55;;;;;;;5.32;2.55;;;1.10;99.90;;;;;;10360424;28;20042;-61
2021/03/17 20:37:58;;;;;;;7.35;3.30;;;1.00;99.90;;;;;;10363039;28;20041;-61
2021/03/17 20:42:59;;;;;;;13.50;4.22;;;0.90;99.90;;;;;;10350766;28;20050;-61
2021/03/17 20:48:01;;;;;;;14.52;4.78;;;0.90;99.90;;;;;;10347148;28;20057;-61
2021/03/17 20:53:04;;;;;;;10.07;4.32;;;0.80;99.90;;;;;;10349231;28;20046;-61
2021/03/17 20:58:06;;;;;;;7.07;3.03;;;0.70;99.90;;;;;;10351242;28;20219;-61
2021/03/17 21:03:10;;;;;;;10.13;2.60;;;0.60;99.90;;;;;;10353500;28;20057;-61
2021/03/17 21:08:12;;;;;;;6.70;1.95;;;0.50;99.90;;;;;;10350698;28;20112;-62
2021/03/17 21:13:14;;;;;;;6.15;2.42;;;0.50;99.90;;;;;;10340743;28;20228;-63
2021/03/17 21:18:16;;;;;;;7.70;2.50;;;0.50;99.90;;;;;;10343264;28;20054;-61
2021/03/17 21:23:18;;;;;;;6.25;1.98;;;0.40;99.90;;;;;;10360065;28;20053;-62
2021/03/17 21:28:19;;;;;;;8.18;2.17;;;0.40;99.90;;;;;;10331858;28;20065;-61
2021/03/17 21:33:20;;;;;;;6.97;1.98;;;0.30;99.90;;;;;;10343568;28;20053;-62
2021/03/17 21:38:24;;;;;;;4.93;1.25;;;0.30;99.90;;;;;;10355098;28;20045;-62
2021/03/17 21:43:25;;;;;;;2.70;1.15;;;0.50;99.90;;;;;;10328518;28;20546;-62
2021/03/17 21:48:26;;;;;;;6.97;2.20;;;0.50;99.90;;;;;;10341218;28;20095;-62
2021/03/17 21:53:28;;;;;;;3.40;1.10;;;0.50;99.90;;;;;;10350398;28;20560;-62
2021/03/17 21:58:29;;;;;;;5.75;1.10;;;0.50;99.90;;;;;;10345600;28;20050;-62
2021/03/17 22:03:30;;;;;;;2.83;1.33;;;0.50;99.90;;;;;;10346617;28;20177;-62
2021/03/17 22:08:32;;;;;;;3.15;1.52;;;0.50;99.90;;;;;;10343915;28;20658;-62
2021/03/17 22:13:33;;;;;;;9.70;2.60;;;0.50;99.90;;;;;;10346530;28;22754;-62
2021/03/17 22:18:35;;;;;;;6.75;2.78;;;0.50;99.90;;;;;;10341101;28;20061;-62
2021/03/17 22:23:36;;;;;;;10.70;2.97;;;0.50;99.90;;;;;;10347383;28;20045;-62
2021/03/17 22:28:38;;;;;;;10.27;3.70;;;0.40;99.90;;;;;;10351800;28;20053;-62
2021/03/17 22:33:39;;;;;;;5.88;1.90;;;0.30;99.90;;;;;;10336583;28;20455;-62
2021/03/17 22:38:40;;;;;;;8.18;2.70;;;0.30;99.90;;;;;;10330639;28;20057;-62
2021/03/17 22:43:41;;;;;;;7.22;2.67;;;0.20;99.90;;;;;;10332000;28;21798;-62
2021/03/17 22:48:42;;;;;;;5.13;2.53;;;0.20;99.90;;;;;;10340929;28;20432;-62
2021/03/17 22:53:44;;;;;;;3.85;2.00;;;0.10;99.90;;;;;;10330065;28;20058;-62
2021/03/17 22:58:45;;;;;;;11.57;2.72;;;0.10;99.90;;;;;;10344888;28;20045;-62
2021/03/17 23:03:47;;;;;;;4.30;2.00;;;0.00;99.90;;;;;;10338746;28;20057;-62
2021/03/17 23:08:53;;;;;;;4.85;2.55;;;0.00;99.90;;;;;;10284850;28;20034;-62
2021/03/17 23:13:58;;;;;;;7.13;2.33;;;-0.10;99.90;;;;;;10294312;28;20085;-62
2021/03/17 23:19:15;;;;;;;9.65;2.83;;;-0.20;99.90;;;;;;10310889;28;20070;-62
2021/03/17 23:24:27;;;;;;;7.28;2.38;;;-0.30;99.90;;;;;;10300771;28;20497;-62
2021/03/17 23:29:31;;;;;;;8.05;2.30;;;-0.30;99.90;;;;;;10259933;28;20907;-62
2021/03/17 23:34:36;;;;;;;5.13;2.42;;;-0.40;99.90;;;;;;10304527;28;20081;-62
2021/03/17 23:39:41;;;;;;;8.02;2.70;;;-0.40;99.90;;;;;;10316628;28;20076;-62
2021/03/17 23:44:42;;;;;;;7.07;3.00;;;-0.50;99.90;;;;;;10312341;28;20051;-62
2021/03/17 23:49:43;;;;;;;6.45;2.53;;;-0.50;99.90;;;;;;10306826;28;20057;-62
2021/03/17 23:54:44;;;;;;;5.32;2.30;;;-0.50;99.90;;;;;;10313548;28;20050;-61
2021/03/17 23:59:46;;;;;;;7.43;3.40;;;-0.60;99.90;;;;;;10301489;28;20429;-62
